sensor_id;sensor_type;location;lat;lon;timestamp;temperature;humidity
23713;DHT22;12035;49.978;8.298;2022-08-20T00:00:44;28.40;40.10
23713;DHT22;12035;49.978;8.298;2022-08-20T00:05:44;28.40;40.20
23713;DHT22;12035;49.978;8.298;2022-08-20T00:10:46;28.30;40.20
23713;DHT22;12035;49.978;8.298;2022-08-20T00:15:45;28.30;40.40
23713;DHT22;12035;49.978;8.298;2022-08-20T00:20:51;28.30;40.40
23713;DHT22;12035;49.978;8.298;2022-08-20T00:25:51;28.30;40.70
23713;DHT22;12035;49.978;8.298;2022-08-20T00:30:48;28.30;40.70
23713;DHT22;12035;49.978;8.298;2022-08-20T00:35:49;28.20;40.70
23713;DHT22;12035;49.978;8.298;2022-08-20T00:40:51;28.20;41.00
23713;DHT22;12035;49.978;8.298;2022-08-20T00:45:50;28.20;41.20
23713;DHT22;12035;49.978;8.298;2022-08-20T00:50:53;28.20;41.20
23713;DHT22;12035;49.978;8.298;2022-08-20T00:55:54;28.10;41.40
23713;DHT22;12035;49.978;8.298;2022-08-20T01:00:51;28.10;41.50
23713;DHT22;12035;49.978;8.298;2022-08-20T01:05:50;28.00;41.50
23713;DHT22;12035;49.978;8.298;2022-08-20T01:10:48;28.00;41.70
23713;DHT22;12035;49.978;8.298;2022-08-20T01:15:52;27.90;41.70
23713;DHT22;12035;49.978;8.298;2022-08-20T01:20:53;28.00;42.00
23713;DHT22;12035;49.978;8.298;2022-08-20T01:25:57;27.90;42.00
23713;DHT22;12035;49.978;8.298;2022-08-20T01:30:58;27.90;42.20
23713;DHT22;12035;49.978;8.298;2022-08-20T01:35:56;27.90;42.20
23713;DHT22;12035;49.978;8.298;2022-08-20T01:41:06;27.80;42.30
23713;DHT22;12035;49.978;8.298;2022-08-20T01:46:07;27.70;42.70
23713;DHT22;12035;49.978;8.298;2022-08-20T01:51:09;27.70;42.50
23713;DHT22;12035;49.978;8.298;2022-08-20T01:56:12;27.70;42.80
23713;DHT22;12035;49.978;8.298;2022-08-20T02:01:18;27.70;42.90
23713;DHT22;12035;49.978;8.298;2022-08-20T02:06:19;27.70;43.20
23713;DHT22;12035;49.978;8.298;2022-08-20T02:11:21;27.60;42.80
23713;DHT22;12035;49.978;8.298;2022-08-20T02:16:20;27.60;43.10
23713;DHT22;12035;49.978;8.298;2022-08-20T02:21:18;27.60;43.10
23713;DHT22;12035;49.978;8.298;2022-08-20T02:26:15;27.60;43.20
23713;DHT22;12035;49.978;8.298;2022-08-20T02:31:16;27.50;43.30
23713;DHT22;12035;49.978;8.298;2022-08-20T02:36:15;27.50;43.60
23713;DHT22;12035;49.978;8.298;2022-08-20T02:41:14;27.40;43.50
23713;DHT22;12035;49.978;8.298;2022-08-20T02:46:12;27.40;43.50
23713;DHT22;12035;49.978;8.298;2022-08-20T02:51:11;27.40;43.70
23713;DHT22;12035;49.978;8.298;2022-08-20T02:56:10;27.30;43.90
23713;DHT22;12035;49.978;8.298;2022-08-20T03:01:10;27.30;43.80
23713;DHT22;12035;49.978;8.298;2022-08-20T03:06:11;27.30;44.20
23713;DHT22;12035;49.978;8.298;2022-08-20T03:11:09;27.30;44.30
23713;DHT22;12035;49.978;8.298;2022-08-20T03:16:08;27.20;44.20
23713;DHT22;12035;49.978;8.298;2022-08-20T03:21:06;27.20;44.40
23713;DHT22;12035;49.978;8.298;2022-08-20T03:26:07;27.20;44.50
23713;DHT22;12035;49.978;8.298;2022-08-20T03:31:05;27.20;44.80
23713;DHT22;12035;49.978;8.298;2022-08-20T03:36:04;27.20;44.90
23713;DHT22;12035;49.978;8.298;2022-08-20T03:41:02;27.10;44.80
23713;DHT22;12035;49.978;8.298;2022-08-20T03:46:00;27.10;45.00
23713;DHT22;12035;49.978;8.298;2022-08-20T03:50:57;27.10;45.10
23713;DHT22;12035;49.978;8.298;2022-08-20T03:55:55;27.00;45.10
23713;DHT22;12035;49.978;8.298;2022-08-20T04:00:56;27.00;45.10
23713;DHT22;12035;49.978;8.298;2022-08-20T04:05:54;27.00;45.20
23713;DHT22;12035;49.978;8.298;2022-08-20T04:10:53;27.00;45.40
23713;DHT22;12035;49.978;8.298;2022-08-20T04:15:52;26.90;45.40
23713;DHT22;12035;49.978;8.298;2022-08-20T04:20:57;26.90;45.40
23713;DHT22;12035;49.978;8.298;2022-08-20T04:25:54;26.90;45.90
23713;DHT22;12035;49.978;8.298;2022-08-20T04:30:52;26.90;45.60
23713;DHT22;12035;49.978;8.298;2022-08-20T04:35:49;26.90;45.80
23713;DHT22;12035;49.978;8.298;2022-08-20T04:40:48;26.90;45.80
23713;DHT22;12035;49.978;8.298;2022-08-20T04:45:54;26.80;46.00
23713;DHT22;12035;49.978;8.298;2022-08-20T04:50:54;26.80;46.10
23713;DHT22;12035;49.978;8.298;2022-08-20T04:55:55;26.80;46.40
23713;DHT22;12035;49.978;8.298;2022-08-20T05:00:56;26.70;46.60
23713;DHT22;12035;49.978;8.298;2022-08-20T05:05:54;26.70;46.70
23713;DHT22;12035;49.978;8.298;2022-08-20T05:10:55;26.70;46.90
23713;DHT22;12035;49.978;8.298;2022-08-20T05:15:53;26.70;47.10
23713;DHT22;12035;49.978;8.298;2022-08-20T05:20:51;26.70;47.10
23713;DHT22;12035;49.978;8.298;2022-08-20T05:25:49;26.60;47.20
23713;DHT22;12035;49.978;8.298;2022-08-20T05:30:49;26.60;47.30
23713;DHT22;12035;49.978;8.298;2022-08-20T05:35:48;26.60;48.40
23713;DHT22;12035;49.978;8.298;2022-08-20T05:40:47;26.40;48.70
23713;DHT22;12035;49.978;8.298;2022-08-20T05:45:45;26.40;49.20
23713;DHT22;12035;49.978;8.298;2022-08-20T05:50:48;26.30;49.90
23713;DHT22;12035;49.978;8.298;2022-08-20T05:55:46;26.30;50.00
23713;DHT22;12035;49.978;8.298;2022-08-20T06:00:45;26.30;50.10
23713;DHT22;12035;49.978;8.298;2022-08-20T06:05:44;26.20;50.10
23713;DHT22;12035;49.978;8.298;2022-08-20T06:10:41;26.20;50.30
23713;DHT22;12035;49.978;8.298;2022-08-20T06:15:39;26.30;50.40
23713;DHT22;12035;49.978;8.298;2022-08-20T06:20:37;26.20;50.30
23713;DHT22;12035;49.978;8.298;2022-08-20T06:25:36;26.20;50.60
23713;DHT22;12035;49.978;8.298;2022-08-20T06:30:33;26.30;51.00
23713;DHT22;12035;49.978;8.298;2022-08-20T06:35:31;26.30;50.80
23713;DHT22;12035;49.978;8.298;2022-08-20T06:40:28;26.30;50.80
23713;DHT22;12035;49.978;8.298;2022-08-20T06:45:29;26.30;50.90
23713;DHT22;12035;49.978;8.298;2022-08-20T06:50:31;26.30;51.20
23713;DHT22;12035;49.978;8.298;2022-08-20T06:55:34;26.30;51.50
23713;DHT22;12035;49.978;8.298;2022-08-20T07:00:35;26.20;51.40
23713;DHT22;12035;49.978;8.298;2022-08-20T07:05:35;26.20;52.00
23713;DHT22;12035;49.978;8.298;2022-08-20T07:10:36;26.20;52.20
23713;DHT22;12035;49.978;8.298;2022-08-20T07:15:35;26.40;52.50
23713;DHT22;12035;49.978;8.298;2022-08-20T07:20:34;26.50;53.00
23713;DHT22;12035;49.978;8.298;2022-08-20T07:25:33;26.80;52.60
23713;DHT22;12035;49.978;8.298;2022-08-20T07:30:30;27.00;52.00
23713;DHT22;12035;49.978;8.298;2022-08-20T07:35:46;27.20;51.70
23713;DHT22;12035;49.978;8.298;2022-08-20T07:40:43;27.40;51.70
23713;DHT22;12035;49.978;8.298;2022-08-20T07:45:43;27.50;51.30
23713;DHT22;12035;49.978;8.298;2022-08-20T07:50:40;27.50;50.40
23713;DHT22;12035;49.978;8.298;2022-08-20T07:55:39;27.60;50.30
23713;DHT22;12035;49.978;8.298;2022-08-20T08:00:37;27.60;50.10
23713;DHT22;12035;49.978;8.298;2022-08-20T08:05:36;27.70;49.90
23713;DHT22;12035;49.978;8.298;2022-08-20T08:10:36;27.80;49.80
23713;DHT22;12035;49.978;8.298;2022-08-20T08:15:35;28.00;49.60
23713;DHT22;12035;49.978;8.298;2022-08-20T08:20:34;28.20;49.10
23713;DHT22;12035;49.978;8.298;2022-08-20T08:25:35;28.40;48.60
23713;DHT22;12035;49.978;8.298;2022-08-20T08:30:33;28.60;48.30
23713;DHT22;12035;49.978;8.298;2022-08-20T08:35:31;28.70;47.70
23713;DHT22;12035;49.978;8.298;2022-08-20T08:40:29;28.80;47.40
23713;DHT22;12035;49.978;8.298;2022-08-20T08:45:33;29.00;47.00
23713;DHT22;12035;49.978;8.298;2022-08-20T08:50:41;29.10;46.80
23713;DHT22;12035;49.978;8.298;2022-08-20T08:55:41;29.30;46.60
23713;DHT22;12035;49.978;8.298;2022-08-20T09:00:39;29.40;46.50
23713;DHT22;12035;49.978;8.298;2022-08-20T09:05:40;29.70;46.80
23713;DHT22;12035;49.978;8.298;2022-08-20T09:10:40;30.00;45.80
23713;DHT22;12035;49.978;8.298;2022-08-20T09:15:41;30.40;45.70
23713;DHT22;12035;49.978;8.298;2022-08-20T09:20:38;30.80;45.20
23713;DHT22;12035;49.978;8.298;2022-08-20T09:25:34;31.30;44.70
23713;DHT22;12035;49.978;8.298;2022-08-20T09:30:32;31.70;43.00
23713;DHT22;12035;49.978;8.298;2022-08-20T09:35:30;32.00;41.70
23713;DHT22;12035;49.978;8.298;2022-08-20T09:40:28;32.20;40.30
23713;DHT22;12035;49.978;8.298;2022-08-20T09:45:25;32.30;40.20
23713;DHT22;12035;49.978;8.298;2022-08-20T09:50:23;32.30;40.00
23713;DHT22;12035;49.978;8.298;2022-08-20T09:55:27;32.30;38.90
23713;DHT22;12035;49.978;8.298;2022-08-20T10:00:27;32.30;38.60
23713;DHT22;12035;49.978;8.298;2022-08-20T10:05:24;32.10;38.00
23713;DHT22;12035;49.978;8.298;2022-08-20T10:10:22;32.00;37.40
23713;DHT22;12035;49.978;8.298;2022-08-20T10:15:19;32.00;37.60
23713;DHT22;12035;49.978;8.298;2022-08-20T10:20:17;32.20;37.40
23713;DHT22;12035;49.978;8.298;2022-08-20T10:25:14;32.30;36.90
23713;DHT22;12035;49.978;8.298;2022-08-20T10:30:13;32.50;35.60
23713;DHT22;12035;49.978;8.298;2022-08-20T10:35:11;32.60;35.00
23713;DHT22;12035;49.978;8.298;2022-08-20T10:40:09;32.80;34.70
23713;DHT22;12035;49.978;8.298;2022-08-20T10:45:08;32.90;34.40
23713;DHT22;12035;49.978;8.298;2022-08-20T10:50:09;33.00;34.10
23713;DHT22;12035;49.978;8.298;2022-08-20T10:55:09;33.00;33.50
23713;DHT22;12035;49.978;8.298;2022-08-20T11:00:07;32.90;33.30
23713;DHT22;12035;49.978;8.298;2022-08-20T11:05:07;32.90;33.60
23713;DHT22;12035;49.978;8.298;2022-08-20T11:10:06;32.90;33.30
23713;DHT22;12035;49.978;8.298;2022-08-20T11:15:05;33.00;32.70
23713;DHT22;12035;49.978;8.298;2022-08-20T11:20:04;33.10;32.60
23713;DHT22;12035;49.978;8.298;2022-08-20T11:25:04;33.10;32.40
23713;DHT22;12035;49.978;8.298;2022-08-20T11:30:03;33.00;32.40
23713;DHT22;12035;49.978;8.298;2022-08-20T11:35:02;33.00;32.30
23713;DHT22;12035;49.978;8.298;2022-08-20T11:40:00;33.00;32.60
23713;DHT22;12035;49.978;8.298;2022-08-20T11:44:58;33.00;32.30
23713;DHT22;12035;49.978;8.298;2022-08-20T11:49:57;33.10;31.80
23713;DHT22;12035;49.978;8.298;2022-08-20T11:54:54;33.20;32.00
23713;DHT22;12035;49.978;8.298;2022-08-20T11:59:53;33.20;31.70
23713;DHT22;12035;49.978;8.298;2022-08-20T12:04:54;33.20;31.40
23713;DHT22;12035;49.978;8.298;2022-08-20T12:09:51;33.20;31.40
23713;DHT22;12035;49.978;8.298;2022-08-20T12:14:48;33.20;31.60
23713;DHT22;12035;49.978;8.298;2022-08-20T12:19:46;33.20;31.70
23713;DHT22;12035;49.978;8.298;2022-08-20T12:24:45;33.30;31.50
23713;DHT22;12035;49.978;8.298;2022-08-20T12:29:43;33.30;30.50
23713;DHT22;12035;49.978;8.298;2022-08-20T12:34:41;33.30;30.60
23713;DHT22;12035;49.978;8.298;2022-08-20T12:39:40;33.30;30.20
23713;DHT22;12035;49.978;8.298;2022-08-20T12:44:41;33.30;30.20
23713;DHT22;12035;49.978;8.298;2022-08-20T12:49:39;33.30;30.20
23713;DHT22;12035;49.978;8.298;2022-08-20T12:54:40;33.30;29.90
23713;DHT22;12035;49.978;8.298;2022-08-20T12:59:37;33.30;29.90
23713;DHT22;12035;49.978;8.298;2022-08-20T13:04:36;33.20;29.80
23713;DHT22;12035;49.978;8.298;2022-08-20T13:09:33;33.20;29.20
23713;DHT22;12035;49.978;8.298;2022-08-20T13:14:30;33.10;28.90
23713;DHT22;12035;49.978;8.298;2022-08-20T13:19:28;33.10;28.80
23713;DHT22;12035;49.978;8.298;2022-08-20T13:24:27;33.10;28.70
23713;DHT22;12035;49.978;8.298;2022-08-20T13:29:25;33.00;28.20
23713;DHT22;12035;49.978;8.298;2022-08-20T13:34:21;32.90;28.30
23713;DHT22;12035;49.978;8.298;2022-08-20T13:39:19;32.90;28.10
23713;DHT22;12035;49.978;8.298;2022-08-20T13:44:17;32.90;28.10
23713;DHT22;12035;49.978;8.298;2022-08-20T13:49:14;32.90;26.80
23713;DHT22;12035;49.978;8.298;2022-08-20T13:54:12;32.90;26.60
23713;DHT22;12035;49.978;8.298;2022-08-20T13:59:09;32.90;26.40
23713;DHT22;12035;49.978;8.298;2022-08-20T14:04:07;32.90;25.30
23713;DHT22;12035;49.978;8.298;2022-08-20T14:09:04;32.80;24.40
23713;DHT22;12035;49.978;8.298;2022-08-20T14:14:01;32.80;24.50
23713;DHT22;12035;49.978;8.298;2022-08-20T14:18:58;32.80;24.40
23713;DHT22;12035;49.978;8.298;2022-08-20T14:23:57;32.80;23.70
23713;DHT22;12035;49.978;8.298;2022-08-20T14:28:56;32.80;24.00
23713;DHT22;12035;49.978;8.298;2022-08-20T14:33:53;32.80;24.10
23713;DHT22;12035;49.978;8.298;2022-08-20T14:38:50;32.80;23.80
23713;DHT22;12035;49.978;8.298;2022-08-20T14:43:48;32.90;24.20
23713;DHT22;12035;49.978;8.298;2022-08-20T14:48:45;32.90;24.00
23713;DHT22;12035;49.978;8.298;2022-08-20T14:53:42;32.90;24.10
23713;DHT22;12035;49.978;8.298;2022-08-20T14:58:39;32.90;24.30
23713;DHT22;12035;49.978;8.298;2022-08-20T15:03:38;32.90;24.90
23713;DHT22;12035;49.978;8.298;2022-08-20T15:08:35;32.90;25.20
23713;DHT22;12035;49.978;8.298;2022-08-20T15:13:32;32.90;25.70
23713;DHT22;12035;49.978;8.298;2022-08-20T15:18:29;32.90;26.10
23713;DHT22;12035;49.978;8.298;2022-08-20T15:23:28;32.90;26.40
23713;DHT22;12035;49.978;8.298;2022-08-20T15:28:25;33.00;26.50
23713;DHT22;12035;49.978;8.298;2022-08-20T15:33:22;33.00;26.50
23713;DHT22;12035;49.978;8.298;2022-08-20T15:38:19;33.00;26.50
23713;DHT22;12035;49.978;8.298;2022-08-20T15:43:18;33.00;26.30
23713;DHT22;12035;49.978;8.298;2022-08-20T15:48:17;33.10;26.30
23713;DHT22;12035;49.978;8.298;2022-08-20T15:53:19;33.10;26.10
23713;DHT22;12035;49.978;8.298;2022-08-20T15:58:28;33.10;26.10
23713;DHT22;12035;49.978;8.298;2022-08-20T16:03:43;33.10;25.80
23713;DHT22;12035;49.978;8.298;2022-08-20T16:09:19;33.00;25.70
23713;DHT22;12035;49.978;8.298;2022-08-20T16:14:33;32.90;25.70
23713;DHT22;12035;49.978;8.298;2022-08-20T16:19:38;32.90;25.70
23713;DHT22;12035;49.978;8.298;2022-08-20T16:24:44;32.80;25.90
23713;DHT22;12035;49.978;8.298;2022-08-20T16:29:51;32.70;25.80
23713;DHT22;12035;49.978;8.298;2022-08-20T16:34:55;32.60;25.80
23713;DHT22;12035;49.978;8.298;2022-08-20T16:39:58;32.50;25.80
23713;DHT22;12035;49.978;8.298;2022-08-20T16:45:05;32.40;26.00
23713;DHT22;12035;49.978;8.298;2022-08-20T16:50:11;32.30;26.30
23713;DHT22;12035;49.978;8.298;2022-08-20T16:55:14;32.30;26.70
23713;DHT22;12035;49.978;8.298;2022-08-20T17:00:22;32.20;27.00
23713;DHT22;12035;49.978;8.298;2022-08-20T17:05:22;32.10;27.10
23713;DHT22;12035;49.978;8.298;2022-08-20T17:10:23;32.00;27.30
23713;DHT22;12035;49.978;8.298;2022-08-20T17:15:26;31.90;27.40
23713;DHT22;12035;49.978;8.298;2022-08-20T17:20:25;31.80;27.40
23713;DHT22;12035;49.978;8.298;2022-08-20T17:25:30;31.70;27.40
23713;DHT22;12035;49.978;8.298;2022-08-20T17:30:36;31.50;27.50
23713;DHT22;12035;49.978;8.298;2022-08-20T17:35:38;31.40;27.60
23713;DHT22;12035;49.978;8.298;2022-08-20T17:40:39;31.30;27.90
23713;DHT22;12035;49.978;8.298;2022-08-20T17:45:42;31.20;28.20
23713;DHT22;12035;49.978;8.298;2022-08-20T17:50:41;31.10;28.30
23713;DHT22;12035;49.978;8.298;2022-08-20T17:55:40;31.00;28.40
23713;DHT22;12035;49.978;8.298;2022-08-20T18:00:42;30.90;28.50
23713;DHT22;12035;49.978;8.298;2022-08-20T18:05:39;30.80;28.60
23713;DHT22;12035;49.978;8.298;2022-08-20T18:10:42;30.70;28.70
23713;DHT22;12035;49.978;8.298;2022-08-20T18:15:55;30.60;28.90
23713;DHT22;12035;49.978;8.298;2022-08-20T18:21:15;30.50;29.10
23713;DHT22;12035;49.978;8.298;2022-08-20T18:26:22;30.40;29.10
23713;DHT22;12035;49.978;8.298;2022-08-20T18:31:26;30.30;29.10
23713;DHT22;12035;49.978;8.298;2022-08-20T18:36:27;30.10;29.20
23713;DHT22;12035;49.978;8.298;2022-08-20T18:41:27;30.00;29.30
23713;DHT22;12035;49.978;8.298;2022-08-20T18:46:27;29.90;29.30
23713;DHT22;12035;49.978;8.298;2022-08-20T18:51:35;29.80;29.40
23713;DHT22;12035;49.978;8.298;2022-08-20T18:56:38;29.70;29.60
23713;DHT22;12035;49.978;8.298;2022-08-20T19:01:39;29.70;29.50
23713;DHT22;12035;49.978;8.298;2022-08-20T19:06:40;29.60;29.60
23713;DHT22;12035;49.978;8.298;2022-08-20T19:23:02;29.30;30.00
23713;DHT22;12035;49.978;8.298;2022-08-20T19:28:05;29.30;30.20
23713;DHT22;12035;49.978;8.298;2022-08-20T19:33:10;29.10;30.30
23713;DHT22;12035;49.978;8.298;2022-08-20T19:38:14;29.00;30.30
23713;DHT22;12035;49.978;8.298;2022-08-20T19:43:15;28.90;30.60
23713;DHT22;12035;49.978;8.298;2022-08-20T19:48:42;28.80;30.70
23713;DHT22;12035;49.978;8.298;2022-08-20T19:53:48;28.60;30.80
23713;DHT22;12035;49.978;8.298;2022-08-20T19:58:57;28.60;30.90
23713;DHT22;12035;49.978;8.298;2022-08-20T20:03:59;28.50;31.10
23713;DHT22;12035;49.978;8.298;2022-08-20T20:08:58;28.50;31.20
23713;DHT22;12035;49.978;8.298;2022-08-20T20:14:00;28.40;31.20
23713;DHT22;12035;49.978;8.298;2022-08-20T20:19:03;28.30;31.30
23713;DHT22;12035;49.978;8.298;2022-08-20T20:24:01;28.20;31.40
23713;DHT22;12035;49.978;8.298;2022-08-20T20:29:04;28.20;31.50
23713;DHT22;12035;49.978;8.298;2022-08-20T20:34:09;28.10;31.60
23713;DHT22;12035;49.978;8.298;2022-08-20T20:39:20;28.10;31.80
23713;DHT22;12035;49.978;8.298;2022-08-20T20:44:24;28.00;31.80
23713;DHT22;12035;49.978;8.298;2022-08-20T20:49:26;28.00;31.80
23713;DHT22;12035;49.978;8.298;2022-08-20T20:54:28;28.00;32.00
23713;DHT22;12035;49.978;8.298;2022-08-20T20:59:26;27.90;32.00
23713;DHT22;12035;49.978;8.298;2022-08-20T21:04:25;27.90;32.00
23713;DHT22;12035;49.978;8.298;2022-08-20T21:09:24;27.90;32.20
23713;DHT22;12035;49.978;8.298;2022-08-20T21:14:21;27.90;32.10
23713;DHT22;12035;49.978;8.298;2022-08-20T21:19:19;27.80;32.10
23713;DHT22;12035;49.978;8.298;2022-08-20T21:24:18;27.80;32.20
23713;DHT22;12035;49.978;8.298;2022-08-20T21:29:24;27.70;32.30
23713;DHT22;12035;49.978;8.298;2022-08-20T21:34:23;27.70;32.40
23713;DHT22;12035;49.978;8.298;2022-08-20T21:39:22;27.70;32.40
23713;DHT22;12035;49.978;8.298;2022-08-20T21:44:23;27.60;32.50
23713;DHT22;12035;49.978;8.298;2022-08-20T21:49:22;27.60;32.70
23713;DHT22;12035;49.978;8.298;2022-08-20T21:54:22;27.60;32.70
23713;DHT22;12035;49.978;8.298;2022-08-20T21:59:20;27.60;32.70
23713;DHT22;12035;49.978;8.298;2022-08-20T22:04:19;27.50;32.90
23713;DHT22;12035;49.978;8.298;2022-08-20T22:09:16;27.50;33.00
23713;DHT22;12035;49.978;8.298;2022-08-20T22:14:16;27.50;33.00
23713;DHT22;12035;49.978;8.298;2022-08-20T22:19:13;27.40;33.10
23713;DHT22;12035;49.978;8.298;2022-08-20T22:24:12;27.30;33.20
23713;DHT22;12035;49.978;8.298;2022-08-20T22:29:10;27.30;33.40
23713;DHT22;12035;49.978;8.298;2022-08-20T22:34:10;27.20;33.60
23713;DHT22;12035;49.978;8.298;2022-08-20T22:39:08;27.10;33.80
23713;DHT22;12035;49.978;8.298;2022-08-20T22:44:06;27.10;33.90
23713;DHT22;12035;49.978;8.298;2022-08-20T22:49:03;27.00;34.00
23713;DHT22;12035;49.978;8.298;2022-08-20T22:54:07;27.00;34.10
23713;DHT22;12035;49.978;8.298;2022-08-20T22:59:06;26.90;34.20
23713;DHT22;12035;49.978;8.298;2022-08-20T23:04:05;26.80;34.10
23713;DHT22;12035;49.978;8.298;2022-08-20T23:09:07;26.80;34.20
23713;DHT22;12035;49.978;8.298;2022-08-20T23:14:03;26.70;34.20
23713;DHT22;12035;49.978;8.298;2022-08-20T23:19:01;26.70;34.40
23713;DHT22;12035;49.978;8.298;2022-08-20T23:23:58;26.60;34.30
23713;DHT22;12035;49.978;8.298;2022-08-20T23:28:56;26.60;34.40
23713;DHT22;12035;49.978;8.298;2022-08-20T23:33:53;26.50;34.30
23713;DHT22;12035;49.978;8.298;2022-08-20T23:38:51;26.50;34.40
23713;DHT22;12035;49.978;8.298;2022-08-20T23:43:48;26.40;34.40
23713;DHT22;12035;49.978;8.298;2022-08-20T23:48:47;26.30;34.30
23713;DHT22;12035;49.978;8.298;2022-08-20T23:53:45;26.30;34.50
23713;DHT22;12035;49.978;8.298;2022-08-20T23:58:43;26.10;34.40
